Danielson Airport


Codes: KLZD/
Name: Danielson Airport
City: Danielson
Country: United States
Elevation: 238 ft.
Wikipedia:

Photos at Danielson Airport


   Photos courtesy of SpottingLog. You can add your own sightings and photos by signing up for a free trial today.



No photos found.

Weather at Danielson Airport


Time (UTC)DescriptionTempratureWindCloud coverageVisibilityPressureHumidity
21-Feb-2024 03:00Clear Sky-4°C2 mph, S0%10000m1032hPa66%
21-Feb-2024 06:00Clear Sky-4°C0 mph, S1%10000m1033hPa68%
21-Feb-2024 09:00Few Clouds-4°C2 mph, SE14%10000m1033hPa68%
21-Feb-2024 12:00Scattered Clouds-4°C2 mph, E34%10000m1034hPa75%
21-Feb-2024 15:00Scattered Clouds2°C4 mph, SE45%10000m1033hPa51%
21-Feb-2024 18:00Broken Clouds3°C7 mph, SE72%10000m1031hPa49%
21-Feb-2024 21:00Overcast Clouds2°C4 mph, SE100%10000m1028hPa57%
22-Feb-2024 00:00Overcast Clouds-2°C2 mph, SE100%10000m1029hPa83%
22-Feb-2024 03:00Overcast Clouds-3°C2 mph, E100%10000m1027hPa87%
22-Feb-2024 06:00Broken Clouds-3°C2 mph, NE82%10000m1025hPa90%
22-Feb-2024 09:00Few Clouds-4°C2 mph, NE23%10000m1022hPa91%
22-Feb-2024 12:00Few Clouds-3°C2 mph, NE14%10000m1022hPa89%
22-Feb-2024 15:00Few Clouds3°C2 mph, E12%10000m1019hPa54%
22-Feb-2024 18:00Few Clouds7°C2 mph, S21%10000m1014hPa43%
22-Feb-2024 21:00Scattered Clouds6°C2 mph, SW36%10000m1011hPa54%
23-Feb-2024 00:00Broken Clouds-1°C4 mph, S65%10000m1010hPa83%
23-Feb-2024 03:00Overcast Clouds0°C4 mph, S99%10000m1008hPa75%
23-Feb-2024 06:00Light Snow0°C4 mph, S99%5147m1006hPa92%
23-Feb-2024 09:00Light Rain1°C7 mph, S100%10000m1002hPa89%
23-Feb-2024 12:00Light Rain3°C7 mph, SE100%10000m999hPa94%
23-Feb-2024 15:00Light Rain5°C7 mph, S100%352m997hPa99%
23-Feb-2024 18:00Light Rain4°C4 mph, SW100%128m995hPa99%
23-Feb-2024 21:00Light Rain3°C4 mph, NW100%10000m995hPa98%
24-Feb-2024 00:00Overcast Clouds3°C9 mph, NW100%10000m997hPa94%
24-Feb-2024 03:00Overcast Clouds3°C9 mph, NW100%10000m998hPa89%
24-Feb-2024 06:00Overcast Clouds0°C9 mph, NW92%10000m999hPa87%
24-Feb-2024 09:00Clear Sky-1°C9 mph, NW8%10000m1000hPa90%
24-Feb-2024 12:00Clear Sky-3°C11 mph, NW8%10000m1004hPa78%
24-Feb-2024 15:00Clear Sky-2°C11 mph, NW10%10000m1007hPa56%
24-Feb-2024 18:00Few Clouds-0°C11 mph, NW18%10000m1008hPa44%
24-Feb-2024 21:00Scattered Clouds-2°C11 mph, NW26%10000m1011hPa47%
25-Feb-2024 00:00Few Clouds-6°C9 mph, NW14%10000m1016hPa56%
25-Feb-2024 03:00Clear Sky-6°C4 mph, NW0%10000m1018hPa58%
25-Feb-2024 06:00Clear Sky-6°C4 mph, NW0%10000m1020hPa59%
25-Feb-2024 09:00Clear Sky-6°C2 mph, W0%10000m1021hPa58%
25-Feb-2024 12:00Clear Sky-6°C4 mph, SW2%10000m1022hPa53%
25-Feb-2024 15:00Clear Sky-0°C9 mph, SW6%10000m1022hPa33%
25-Feb-2024 18:00Few Clouds3°C11 mph, SW14%10000m1020hPa35%
25-Feb-2024 21:00Broken Clouds2°C9 mph, SW81%10000m1020hPa44%
26-Feb-2024 00:00Overcast Clouds-1°C9 mph, SW90%10000m1020hPa69%